Time;durP1;ratioP1;P1;durP2;ratioP2;P2;SDS_P1;SDS_P2;PMS_P1;PMS_P2;Temp;Humidity;BMP_temperature;BMP_pressure;BME280_temperature;BME280_humidity;BME280_pressure;Samples;Min_cycle;Max_cycle;Signal;HPM_P1;HPM_P2
2022/10/13 01:06:30;;;;;;;0.30;0.30;;;22.60;50.60;;;;;;6401606;22;20053;-59
2022/10/13 01:09:36;;;;;;;0.65;0.30;;;23.00;51.50;;;;;;6198629;28;20418;-58
2022/10/13 01:12:49;;;;;;;0.32;0.20;;;22.80;51.50;;;;;;6192974;28;20069;-59
2022/10/13 01:15:56;;;;;;;0.32;0.25;;;22.30;51.30;;;;;;6193279;28;20348;-58
2022/10/13 01:19:08;;;;;;;0.20;0.20;;;22.50;51.40;;;;;;6202445;28;20115;-59
2022/10/13 01:22:20;;;;;;;;;;;22.30;51.20;;;;;;6203103;28;20819;-59
2022/10/13 01:25:38;;;;;;;0.40;0.30;;;22.50;51.60;;;;;;6196823;28;20348;-59
2022/10/13 01:28:59;;;;;;;0.50;0.25;;;22.70;51.50;;;;;;6206361;28;20522;-58
2022/10/13 01:32:06;;;;;;;0.30;0.17;;;22.60;51.50;;;;;;6196023;28;20128;-59
2022/10/13 01:35:13;;;;;;;0.38;0.20;;;22.50;51.50;;;;;;6191433;28;20519;-59
2022/10/13 01:38:21;;;;;;;0.75;0.40;;;22.70;51.80;;;;;;6191327;28;20048;-59
2022/10/13 01:41:33;;;;;;;0.47;0.35;;;22.10;51.50;;;;;;6201153;28;20827;-58
2022/10/13 01:44:39;;;;;;;0.22;0.20;;;22.30;51.80;;;;;;6170946;28;20076;-57
2022/10/13 01:47:42;;;;;;;0.30;0.30;;;22.70;52.10;;;;;;6197041;28;20557;-58
2022/10/13 01:50:44;;;;;;;0.70;0.22;;;22.00;51.80;;;;;;6214220;28;20490;-58
2022/10/13 01:53:46;;;;;;;0.47;0.20;;;22.60;52.40;;;;;;6224026;28;20561;-59
2022/10/13 01:56:52;;;;;;;0.43;0.30;;;22.70;52.50;;;;;;6223502;28;20045;-58
2022/10/13 01:59:53;;;;;;;0.47;0.20;;;21.80;52.60;;;;;;6221135;28;20280;-58
2022/10/13 02:03:05;;;;;;;0.40;0.30;;;22.70;52.70;;;;;;6220097;28;20687;-59
2022/10/13 02:06:16;;;;;;;0.30;0.20;;;22.40;52.40;;;;;;6225346;28;20721;-59
2022/10/13 02:09:26;;;;;;;0.40;0.30;;;22.40;52.50;;;;;;6204361;28;20595;-57
2022/10/13 02:12:33;;;;;;;0.20;0.20;;;22.30;52.50;;;;;;6221034;28;20523;-58
2022/10/13 02:15:39;;;;;;;0.22;0.20;;;22.30;52.50;;;;;;6228353;28;20501;-59
2022/10/13 02:18:43;;;;;;;0.40;0.20;;;22.50;52.70;;;;;;6200920;28;20063;-59
2022/10/13 02:21:46;;;;;;;0.47;0.28;;;22.50;52.90;;;;;;6220628;28;20626;-58
2022/10/13 02:24:48;;;;;;;0.38;0.30;;;22.60;52.90;;;;;;6224449;28;20114;-59
2022/10/13 02:27:49;;;;;;;0.50;0.40;;;22.80;53.30;;;;;;6220398;28;20075;-59
2022/10/13 02:30:51;;;;;;;0.40;0.22;;;22.40;53.20;;;;;;6219500;28;20286;-59
2022/10/13 02:33:53;;;;;;;;;;;22.60;53.30;;;;;;6216783;28;20307;-58
2022/10/13 02:36:54;;;;;;;0.45;0.32;;;22.60;53.50;;;;;;6218717;28;19928;-58
2022/10/13 02:39:58;;;;;;;;;;;22.20;53.10;;;;;;6216689;28;20125;-59
2022/10/13 02:43:00;;;;;;;0.50;0.25;;;22.40;53.40;;;;;;6227107;28;20050;-59
2022/10/13 02:46:02;;;;;;;0.40;0.30;;;22.60;53.50;;;;;;6229765;28;20041;-59
2022/10/13 02:49:04;;;;;;;0.25;0.20;;;22.60;53.60;;;;;;6229572;28;20984;-59
2022/10/13 02:52:05;;;;;;;0.30;0.20;;;22.80;53.70;;;;;;6222358;28;20199;-59
2022/10/13 02:55:07;;;;;;;;;;;22.00;53.40;;;;;;6223586;28;20507;-59
2022/10/13 02:58:08;;;;;;;0.20;0.20;;;22.30;53.70;;;;;;6223896;28;20384;-58
2022/10/13 03:01:11;;;;;;;;;;;22.50;53.70;;;;;;6223482;28;20080;-57
2022/10/13 03:04:13;;;;;;;0.22;0.20;;;22.20;53.60;;;;;;6209181;28;20347;-59
2022/10/13 03:07:15;;;;;;;0.20;0.20;;;22.00;53.50;;;;;;6225900;28;21102;-59
2022/10/13 03:10:16;;;;;;;0.25;0.25;;;22.40;53.80;;;;;;6214500;28;20347;-58
2022/10/13 03:13:18;;;;;;;0.50;0.20;;;22.30;53.80;;;;;;6220337;28;20052;-58
2022/10/13 03:16:19;;;;;;;0.30;0.20;;;22.50;53.90;;;;;;6224854;28;20291;-58
2022/10/13 03:19:21;;;;;;;;;;;22.30;54.00;;;;;;6230240;28;21067;-59
2022/10/13 03:22:23;;;;;;;0.20;0.10;;;22.10;54.00;;;;;;6230004;28;19928;-59
2022/10/13 03:25:26;;;;;;;0.40;0.20;;;22.60;54.20;;;;;;6226393;28;20057;-59
2022/10/13 03:28:27;;;;;;;;;;;22.40;54.20;;;;;;6207002;28;20321;-57
2022/10/13 03:31:29;;;;;;;1.05;0.20;;;22.30;54.30;;;;;;6209076;28;20113;-58
2022/10/13 03:34:36;;;;;;;0.38;0.10;;;22.50;54.20;;;;;;6211780;28;20459;-58
2022/10/13 03:37:38;;;;;;;0.10;0.10;;;22.60;54.30;;;;;;6211582;28;20053;-59
2022/10/13 03:40:39;;;;;;;0.40;0.20;;;22.50;54.40;;;;;;6209922;28;20086;-58
2022/10/13 03:43:42;;;;;;;0.30;0.20;;;22.60;54.30;;;;;;6208796;28;20194;-59
2022/10/13 03:46:44;;;;;;;0.20;0.20;;;22.20;54.20;;;;;;6192761;28;20590;-58
2022/10/13 03:49:46;;;;;;;;;;;22.50;54.60;;;;;;6213560;28;20045;-58
2022/10/13 03:52:47;;;;;;;0.10;0.10;;;22.20;54.70;;;;;;6214799;28;21930;-58
2022/10/13 03:55:49;;;;;;;;;;;22.40;54.60;;;;;;6213298;28;20076;-57
2022/10/13 03:58:53;;;;;;;0.30;0.28;;;22.30;54.60;;;;;;6213054;28;20286;-59
2022/10/13 04:01:55;;;;;;;0.20;0.20;;;22.40;54.60;;;;;;6216341;28;20074;-57
2022/10/13 04:04:57;;;;;;;0.35;0.25;;;22.60;55.00;;;;;;6220005;28;20040;-59
2022/10/13 04:07:58;;;;;;;0.43;0.25;;;22.50;55.00;;;;;;6223067;28;20073;-59
2022/10/13 04:11:03;;;;;;;0.55;0.30;;;22.30;55.00;;;;;;6218521;28;20871;-59
2022/10/13 04:14:04;;;;;;;0.30;0.20;;;22.00;54.80;;;;;;6187138;28;20488;-58
2022/10/13 04:17:06;;;;;;;0.20;0.13;;;22.40;55.30;;;;;;6210481;28;20892;-58
2022/10/13 04:20:08;;;;;;;;;;;22.60;55.40;;;;;;6208644;28;20148;-59
2022/10/13 04:23:10;;;;;;;0.30;0.20;;;22.10;55.10;;;;;;6212534;28;20869;-59
2022/10/13 04:26:18;;;;;;;0.30;0.20;;;22.00;55.00;;;;;;6207912;28;20149;-58
2022/10/13 04:29:19;;;;;;;0.20;0.20;;;22.40;55.20;;;;;;6199378;28;20044;-57
2022/10/13 04:32:26;;;;;;;0.65;0.20;;;22.20;55.30;;;;;;6199758;28;21160;-58
2022/10/13 04:35:29;;;;;;;0.40;0.20;;;22.50;55.30;;;;;;6194499;28;20037;-58
2022/10/13 04:38:30;;;;;;;0.70;0.30;;;22.40;55.60;;;;;;6173716;28;20175;-59
2022/10/13 04:41:31;;;;;;;;;;;21.90;55.50;;;;;;6212280;28;20135;-59
2022/10/13 04:44:33;;;;;;;0.13;0.10;;;22.40;55.90;;;;;;6212367;28;20986;-59
2022/10/13 04:47:36;;;;;;;0.30;0.20;;;22.30;55.60;;;;;;6212520;28;20048;-59
2022/10/13 04:50:38;;;;;;;0.10;0.10;;;22.50;56.00;;;;;;6209787;28;21198;-59
2022/10/13 04:53:41;;;;;;;0.20;0.20;;;22.10;55.90;;;;;;6202105;28;20051;-57
2022/10/13 04:56:45;;;;;;;0.82;0.20;;;22.50;56.00;;;;;;6187461;28;20471;-58
2022/10/13 04:59:53;;;;;;;0.25;0.20;;;22.30;56.10;;;;;;6202412;28;20064;-58
2022/10/13 05:02:55;;;;;;;;;;;21.90;56.00;;;;;;6199894;28;20594;-59
2022/10/13 05:05:57;;;;;;;0.60;0.15;;;22.60;56.60;;;;;;6201961;28;19971;-59
2022/10/13 05:08:59;;;;;;;0.35;0.32;;;22.20;56.00;;;;;;6209083;28;20906;-59
2022/10/13 05:12:01;;;;;;;0.45;0.30;;;22.50;56.30;;;;;;6192144;28;20147;-59
2022/10/13 05:15:03;;;;;;;0.30;0.20;;;22.60;56.60;;;;;;6214582;28;20068;-58
2022/10/13 05:18:04;;;;;;;0.50;0.20;;;22.50;56.60;;;;;;6211940;28;20037;-59
2022/10/13 05:21:08;;;;;;;;;;;22.50;56.80;;;;;;6210408;28;20140;-59
2022/10/13 05:24:12;;;;;;;0.60;0.20;;;22.30;57.50;;;;;;6184839;28;19929;-58
2022/10/13 05:27:15;;;;;;;0.40;0.20;;;22.40;56.60;;;;;;6206488;28;20094;-59
2022/10/13 05:30:16;;;;;;;0.40;0.40;;;22.50;57.10;;;;;;6210481;28;20162;-59
2022/10/13 05:33:18;;;;;;;0.30;0.15;;;22.40;57.10;;;;;;6205526;28;21088;-58
2022/10/13 05:36:21;;;;;;;;;;;22.10;57.30;;;;;;6190116;28;20036;-59
2022/10/13 05:39:23;;;;;;;0.38;0.20;;;22.20;57.20;;;;;;6202327;28;20018;-58
2022/10/13 05:42:24;;;;;;;;;;;22.60;57.60;;;;;;6202342;28;20048;-59
2022/10/13 05:45:28;;;;;;;0.25;0.20;;;22.20;57.70;;;;;;6201313;28;19924;-58
2022/10/13 05:48:30;;;;;;;0.30;0.20;;;22.30;57.40;;;;;;6172872;28;20040;-59
2022/10/13 05:51:36;;;;;;;0.20;0.20;;;22.70;58.00;;;;;;6194392;28;20159;-58
2022/10/13 05:54:41;;;;;;;0.38;0.30;;;22.30;57.90;;;;;;6193735;28;20071;-59
2022/10/13 05:57:47;;;;;;;0.50;0.40;;;22.30;58.00;;;;;;6204545;28;20055;-59
2022/10/13 06:00:48;;;;;;;0.60;0.50;;;22.40;58.20;;;;;;6156059;28;21154;-59
2022/10/13 06:03:53;;;;;;;0.30;0.30;;;22.10;58.30;;;;;;6186737;28;20044;-58
2022/10/13 06:06:55;;;;;;;0.50;0.40;;;22.60;58.60;;;;;;6183969;28;20068;-59
2022/10/13 06:09:58;;;;;;;0.50;0.20;;;22.30;58.50;;;;;;6172652;28;20159;-59
2022/10/13 06:12:59;;;;;;;0.28;0.20;;;22.40;58.50;;;;;;6183184;28;21333;-57
2022/10/13 06:16:01;;;;;;;0.10;0.10;;;24.30;59.50;;;;;;6170451;28;20138;-59
2022/10/13 06:19:03;;;;;;;0.40;0.22;;;22.30;58.40;;;;;;6172316;28;20145;-59
2022/10/13 06:22:05;;;;;;;0.30;0.22;;;22.20;58.40;;;;;;6141956;28;20045;-59
2022/10/13 06:25:08;;;;;;;0.10;0.10;;;22.50;58.40;;;;;;6137645;28;21047;-59
2022/10/13 06:28:09;;;;;;;0.65;0.30;;;22.60;58.50;;;;;;6173365;28;20037;-59
2022/10/13 06:31:11;;;;;;;;;;;22.30;58.50;;;;;;6128351;28;20700;-59
2022/10/13 06:34:12;;;;;;;0.32;0.20;;;22.30;58.60;;;;;;6150889;28;21423;-58
2022/10/13 06:37:19;;;;;;;0.30;0.20;;;22.00;58.20;;;;;;6091237;28;20051;-58
2022/10/13 06:40:27;;;;;;;0.20;0.20;;;22.10;58.20;;;;;;6091115;28;20124;-59
2022/10/13 06:43:29;;;;;;;1.20;0.30;;;22.60;58.70;;;;;;6109884;28;20062;-59
2022/10/13 06:46:46;;;;;;;0.88;0.55;;;22.60;58.70;;;;;;6106177;28;20044;-57
2022/10/13 06:49:48;;;;;;;0.30;0.20;;;22.60;73.60;;;;;;6108874;28;26225;-58
2022/10/13 06:52:51;;;;;;;2.78;0.20;;;22.70;58.90;;;;;;6085462;28;20140;-59
2022/10/13 06:55:55;;;;;;;0.20;0.20;;;22.60;58.70;;;;;;6091787;28;20064;-59
2022/10/13 06:58:57;;;;;;;0.30;0.30;;;22.70;58.80;;;;;;6066195;28;21424;-60
2022/10/13 07:01:59;;;;;;;1.77;0.20;;;22.60;58.70;;;;;;6043273;28;20044;-60
2022/10/13 07:05:00;;;;;;;1.23;0.15;;;22.60;58.80;;;;;;6054907;28;20033;-57
2022/10/13 07:08:02;;;;;;;0.30;0.22;;;23.10;59.20;;;;;;5961542;28;20056;-58
2022/10/13 07:11:06;;;;;;;0.40;0.20;;;22.70;59.10;;;;;;6005612;28;20052;-59
2022/10/13 07:14:15;;;;;;;1.08;0.35;;;22.70;59.20;;;;;;5979804;28;20307;-59
2022/10/13 07:17:17;;;;;;;1.33;0.20;;;22.60;59.30;;;;;;5986299;28;20117;-62
2022/10/13 07:20:20;;;;;;;1.70;0.35;;;22.50;59.30;;;;;;5991733;28;20076;-58
2022/10/13 07:23:22;;;;;;;1.30;0.20;;;21.90;59.20;;;;;;5965646;28;20713;-56
2022/10/13 07:26:24;;;;;;;0.38;0.20;;;22.40;60.10;;;;;;5951269;28;20055;-58
2022/10/13 07:29:26;;;;;;;0.40;0.20;;;22.50;59.50;;;;;;6030117;28;20048;-58
2022/10/13 07:32:28;;;;;;;1.17;0.25;;;22.70;59.90;;;;;;5976803;28;20053;-58
2022/10/13 07:35:29;;;;;;;1.02;0.28;;;22.40;59.60;;;;;;5984204;28;20041;-58
2022/10/13 07:38:32;;;;;;;0.55;0.30;;;22.90;60.10;;;;;;6010792;28;20601;-57
2022/10/13 07:41:34;;;;;;;0.40;0.20;;;22.50;59.80;;;;;;5998173;28;20134;-59
2022/10/13 07:44:36;;;;;;;0.40;0.17;;;22.50;60.00;;;;;;5945765;28;20126;-57
2022/10/13 07:47:38;;;;;;;1.38;0.20;;;23.00;60.20;;;;;;5933027;28;20048;-58
2022/10/13 07:50:39;;;;;;;3.88;0.20;;;22.80;60.10;;;;;;6017354;28;20059;-57
2022/10/13 07:53:42;;;;;;;1.52;0.40;;;22.80;60.00;;;;;;5997422;28;20040;-60
2022/10/13 07:56:43;;;;;;;0.90;0.50;;;23.10;60.20;;;;;;6035625;28;20044;-59
2022/10/13 07:59:45;;;;;;;2.05;0.35;;;23.10;60.20;;;;;;6000133;28;20042;-59
2022/10/13 08:02:49;;;;;;;2.92;0.40;;;23.10;60.30;;;;;;5976895;28;20167;-61
2022/10/13 08:05:51;;;;;;;0.50;0.20;;;23.10;60.10;;;;;;6009319;28;20067;-60
2022/10/13 08:08:53;;;;;;;0.82;0.30;;;23.10;60.20;;;;;;5970980;28;20053;-60
2022/10/13 08:11:55;;;;;;;0.30;0.30;;;22.80;60.00;;;;;;5990293;28;20175;-60
2022/10/13 08:15:03;;;;;;;0.65;0.28;;;23.20;60.20;;;;;;5990229;28;20607;-60
2022/10/13 08:18:08;;;;;;;0.40;0.20;;;22.60;60.00;;;;;;5998801;28;20793;-60
2022/10/13 08:21:12;;;;;;;0.60;0.40;;;22.80;60.00;;;;;;5967665;28;20040;-60
2022/10/13 08:24:35;;;;;;;0.47;0.30;;;22.60;59.80;;;;;;5971584;28;20052;-59
2022/10/13 08:27:37;;;;;;;0.35;0.22;;;23.30;60.10;;;;;;5988139;28;20167;-62
2022/10/13 08:30:52;;;;;;;0.88;0.45;;;22.70;59.80;;;;;;5970789;28;21601;-61
2022/10/13 08:33:54;;;;;;;1.65;0.40;;;22.80;60.00;;;;;;5992511;28;20087;-62
2022/10/13 08:36:58;;;;;;;0.50;0.30;;;23.00;59.90;;;;;;5969816;28;20052;-62
2022/10/13 08:40:00;;;;;;;0.28;0.20;;;23.20;60.00;;;;;;5970342;28;20048;-62
2022/10/13 08:43:05;;;;;;;1.13;0.30;;;23.10;60.30;;;;;;5962867;28;20088;-61
2022/10/13 08:46:11;;;;;;;0.30;0.30;;;23.00;60.00;;;;;;5930203;28;21217;-61
2022/10/13 08:49:14;;;;;;;0.30;0.30;;;23.50;60.20;;;;;;5987843;28;20056;-62
2022/10/13 08:52:20;;;;;;;1.48;0.30;;;22.90;59.80;;;;;;5989149;28;20056;-62
2022/10/13 08:55:29;;;;;;;0.50;0.35;;;23.20;60.10;;;;;;5929973;28;20037;-60
2022/10/13 08:58:33;;;;;;;1.23;0.40;;;23.30;60.10;;;;;;5956641;28;20270;-61
2022/10/13 09:01:36;;;;;;;1.35;0.30;;;23.10;60.00;;;;;;5966443;28;20051;-61
2022/10/13 09:04:40;;;;;;;0.68;0.47;;;23.20;60.00;;;;;;5943921;28;20051;-60
2022/10/13 09:07:45;;;;;;;0.52;0.25;;;22.80;60.00;;;;;;5881151;28;21799;-61
2022/10/13 09:10:48;;;;;;;1.17;0.20;;;23.10;60.10;;;;;;5993940;28;20049;-60
2022/10/13 09:13:55;;;;;;;0.47;0.35;;;23.20;60.00;;;;;;5971159;28;20413;-60
2022/10/13 09:17:13;;;;;;;0.32;0.30;;;23.30;60.10;;;;;;5918673;28;20048;-57
2022/10/13 09:20:23;;;;;;;0.95;0.30;;;23.20;60.20;;;;;;5879367;28;20057;-60
2022/10/13 09:23:26;;;;;;;0.43;0.30;;;23.00;60.10;;;;;;5938324;28;20138;-59
2022/10/13 09:26:28;;;;;;;0.50;0.20;;;23.20;60.30;;;;;;5937977;28;20037;-60
2022/10/13 09:29:30;;;;;;;0.40;0.30;;;23.30;60.40;;;;;;5988865;28;20052;-60
2022/10/13 09:32:34;;;;;;;0.80;0.40;;;23.30;60.30;;;;;;5948112;28;20037;-58
2022/10/13 09:35:37;;;;;;;0.20;0.20;;;22.90;60.30;;;;;;5930719;28;20511;-59
2022/10/13 09:38:41;;;;;;;0.30;0.30;;;23.20;60.50;;;;;;5965599;28;20084;-59
2022/10/13 09:41:43;;;;;;;0.88;0.20;;;22.80;60.10;;;;;;5967278;28;20044;-59
2022/10/13 09:44:46;;;;;;;0.40;0.28;;;23.30;60.60;;;;;;6015711;28;20040;-60
2022/10/13 09:47:50;;;;;;;0.93;0.30;;;22.90;60.40;;;;;;5967580;28;20060;-60
2022/10/13 09:50:54;;;;;;;1.05;0.30;;;23.50;60.90;;;;;;5972331;28;20079;-59
2022/10/13 09:53:56;;;;;;;0.30;0.20;;;23.10;60.70;;;;;;5959312;28;20600;-59
2022/10/13 09:57:00;;;;;;;;;;;23.40;60.90;;;;;;5996432;28;21238;-59
2022/10/13 10:00:13;;;;;;;0.30;0.30;;;23.40;61.00;;;;;;4834168;28;20360;-60
2022/10/13 10:03:21;;;;;;;0.40;0.20;;;23.40;60.90;;;;;;5917096;28;21295;-59
2022/10/13 10:06:27;;;;;;;0.35;0.20;;;23.40;61.00;;;;;;5511007;28;21081;-60
2022/10/13 10:09:35;;;;;;;0.82;0.30;;;23.00;61.50;;;;;;4079960;28;20743;-58
2022/10/13 10:12:40;;;;;;;0.47;0.30;;;23.10;61.70;;;;;;4089449;28;22513;-60
2022/10/13 10:15:51;;;;;;;1.48;0.50;;;23.10;61.50;;;;;;4176914;28;20654;-60
2022/10/13 10:19:02;;;;;;;1.02;0.40;;;23.10;61.50;;;;;;4250738;28;22825;-60
2022/10/13 10:22:13;;;;;;;1.20;0.20;;;23.20;61.80;;;;;;4163209;28;20531;-60
2022/10/13 10:25:29;;;;;;;0.30;0.30;;;23.50;61.80;;;;;;4208242;28;21772;-60
2022/10/13 10:28:56;;;;;;;1.30;0.20;;;23.20;61.50;;;;;;6008526;28;20052;-59
2022/10/13 10:32:08;;;;;;;0.40;0.25;;;23.10;61.50;;;;;;6002050;28;21254;-59
2022/10/13 10:35:15;;;;;;;2.05;0.25;;;23.40;61.70;;;;;;6017675;28;20037;-59
2022/10/13 10:38:26;;;;;;;0.30;0.22;;;23.50;61.80;;;;;;6043287;28;20057;-58
2022/10/13 10:41:42;;;;;;;0.40;0.30;;;23.20;61.60;;;;;;6037886;28;20046;-58
2022/10/13 10:44:47;;;;;;;1.40;0.40;;;23.10;62.00;;;;;;6039934;28;20959;-58
2022/10/13 10:47:53;;;;;;;0.50;0.40;;;23.20;61.80;;;;;;6051012;28;21134;-59
2022/10/13 10:50:56;;;;;;;0.57;0.40;;;23.40;62.00;;;;;;6090499;28;20052;-59
2022/10/13 10:54:13;;;;;;;0.32;0.20;;;23.20;61.80;;;;;;6042729;28;22844;-59
2022/10/13 10:57:23;;;;;;;0.30;0.30;;;23.30;61.90;;;;;;6076000;28;20164;-59
2022/10/13 11:00:25;;;;;;;0.20;0.20;;;23.50;62.00;;;;;;6064962;28;20163;-59
2022/10/13 11:03:40;;;;;;;0.43;0.40;;;23.70;62.00;;;;;;6045821;28;20043;-58
2022/10/13 11:06:42;;;;;;;1.98;0.30;;;23.30;62.00;;;;;;6073339;28;20034;-58
2022/10/13 11:10:00;;;;;;;0.20;0.20;;;23.50;62.10;;;;;;6065052;28;20052;-59
2022/10/13 11:17:33;;;;;;;0.40;0.20;;;22.80;61.80;;;;;;4191263;28;22616;-59
2022/10/13 11:20:57;;;;;;;0.25;0.15;;;23.00;62.60;;;;;;4342539;28;21786;-61
2022/10/13 11:23:59;;;;;;;0.40;0.20;;;23.30;62.70;;;;;;4902068;28;20053;-62
2022/10/13 11:27:54;;;;;;;0.82;0.28;;;23.30;62.30;;;;;;4367646;28;22051;-60
2022/10/13 11:31:53;;;;;;;0.30;0.17;;;23.20;61.90;;;;;;3509800;29;20859;-60
2022/10/13 11:35:18;;;;;;;0.20;0.20;;;23.30;62.50;;;;;;4218828;29;21909;-62
2022/10/13 11:38:33;;;;;;;0.28;0.20;;;23.50;62.40;;;;;;5488290;29;20178;-60
2022/10/13 11:41:44;;;;;;;0.35;0.20;;;23.30;62.50;;;;;;4153929;29;20222;-62
2022/10/13 11:44:53;;;;;;;1.45;0.10;;;23.30;62.60;;;;;;4365296;29;22275;-62
2022/10/13 11:48:27;;;;;;;1.55;0.20;;;23.50;62.10;;;;;;5849674;29;21816;-60
2022/10/13 11:51:39;;;;;;;1.00;0.20;;;23.20;62.10;;;;;;5875854;29;20095;-60
2022/10/13 11:54:49;;;;;;;0.13;0.10;;;23.50;62.10;;;;;;5818250;29;20052;-59
2022/10/13 11:57:50;;;;;;;0.60;0.30;;;23.60;62.30;;;;;;5846194;29;22172;-58
2022/10/13 12:00:55;;;;;;;0.30;0.30;;;23.60;62.20;;;;;;5776885;29;20653;-59
2022/10/13 12:03:57;;;;;;;0.55;0.10;;;23.60;62.50;;;;;;5452921;29;20197;-59
2022/10/13 12:07:01;;;;;;;0.40;0.40;;;23.30;62.10;;;;;;5044347;29;20048;-62
2022/10/13 12:10:08;;;;;;;0.30;0.20;;;23.50;62.20;;;;;;5791955;29;20159;-61
2022/10/13 12:13:20;;;;;;;1.17;0.20;;;23.40;62.20;;;;;;5795534;29;20051;-61
2022/10/13 12:16:21;;;;;;;;;;;23.50;62.40;;;;;;5821018;29;20119;-61
2022/10/13 12:19:27;;;;;;;0.20;0.20;;;23.40;62.60;;;;;;5833864;29;19930;-61
2022/10/13 12:22:29;;;;;;;0.30;0.10;;;23.50;62.40;;;;;;5824911;29;20710;-61
2022/10/13 12:25:32;;;;;;;0.30;0.30;;;23.50;62.50;;;;;;5810577;29;21690;-59
2022/10/13 12:28:49;;;;;;;0.60;0.35;;;23.60;62.80;;;;;;5821148;29;20794;-59
2022/10/13 12:31:51;;;;;;;1.00;0.20;;;23.60;62.70;;;;;;5800305;29;20051;-59
2022/10/13 12:34:53;;;;;;;1.02;0.10;;;23.30;62.60;;;;;;5823368;29;20040;-58
2022/10/13 12:38:17;;;;;;;0.77;0.20;;;23.60;63.00;;;;;;5188465;29;22767;-60
2022/10/13 12:41:27;;;;;;;0.10;0.10;;;23.40;62.90;;;;;;5908066;28;21291;-57
2022/10/13 12:44:31;;;;;;;0.10;0.08;;;23.40;62.90;;;;;;5935635;28;21539;-60
2022/10/13 12:47:39;;;;;;;0.10;0.10;;;23.60;62.90;;;;;;5928186;28;20046;-59
2022/10/13 12:50:42;;;;;;;0.25;0.20;;;23.50;62.80;;;;;;5930973;28;20046;-58
2022/10/13 12:53:45;;;;;;;0.35;0.20;;;23.50;62.80;;;;;;5943354;28;20325;-58
2022/10/13 12:56:49;;;;;;;0.22;0.20;;;23.60;63.50;;;;;;5933202;28;22543;-59
2022/10/13 12:59:59;;;;;;;0.65;0.25;;;23.60;62.80;;;;;;5934378;28;20038;-55
2022/10/13 13:03:06;;;;;;;0.68;0.30;;;23.10;62.60;;;;;;5881141;28;20172;-59
2022/10/13 13:06:30;;;;;;;0.10;0.10;;;23.70;63.00;;;;;;5891465;28;22058;-58
2022/10/13 13:09:33;;;;;;;0.82;0.30;;;23.70;63.10;;;;;;5897555;28;20061;-59
2022/10/13 13:12:36;;;;;;;1.23;0.45;;;23.30;62.80;;;;;;5912055;28;20115;-58
2022/10/13 13:15:42;;;;;;;0.57;0.20;;;23.30;62.70;;;;;;5443367;28;21237;-57
2022/10/13 13:18:47;;;;;;;0.20;0.20;;;23.20;63.10;;;;;;5265650;28;21729;-57
2022/10/13 13:21:49;;;;;;;0.20;0.20;;;23.10;62.50;;;;;;5953412;28;20507;-58
2022/10/13 13:24:51;;;;;;;0.13;0.13;;;23.30;62.70;;;;;;5893651;28;20052;-58
2022/10/13 13:27:53;;;;;;;0.40;0.20;;;23.60;62.90;;;;;;5876022;28;20050;-58
2022/10/13 13:31:00;;;;;;;0.30;0.20;;;22.90;62.60;;;;;;4945385;28;20827;-58
2022/10/13 13:34:08;;;;;;;1.23;0.20;;;23.00;63.00;;;;;;3706995;28;21017;-60
2022/10/13 13:37:22;;;;;;;0.32;0.22;;;23.50;63.00;;;;;;5287323;28;20100;-60
2022/10/13 13:40:31;;;;;;;0.60;0.20;;;23.60;63.50;;;;;;3915680;28;21965;-57
2022/10/13 13:43:42;;;;;;;0.43;0.30;;;23.60;62.70;;;;;;3966394;28;22913;-56
2022/10/13 13:46:47;;;;;;;0.35;0.10;;;23.30;63.20;;;;;;3888960;28;21309;-54
2022/10/13 13:54:21;;;;;;;0.20;0.20;;;22.80;62.50;;;;;;3470147;28;22380;-57
2022/10/13 13:57:27;;;;;;;0.25;0.20;;;23.20;63.40;;;;;;3523223;28;21294;-58
2022/10/13 14:00:44;;;;;;;0.30;0.13;;;23.10;62.90;;;;;;3693756;28;22613;-56
2022/10/13 14:03:48;;;;;;;0.90;0.30;;;23.70;63.90;;;;;;3727350;28;20058;-57
2022/10/13 14:06:53;;;;;;;0.43;0.30;;;23.50;63.80;;;;;;3708710;28;20672;-60
2022/10/13 14:10:00;;;;;;;0.43;0.30;;;23.50;62.90;;;;;;5042755;28;20050;-60
2022/10/13 14:13:03;;;;;;;0.40;0.30;;;23.50;63.30;;;;;;5884412;28;20180;-61
2022/10/13 14:16:06;;;;;;;0.32;0.20;;;23.70;63.50;;;;;;5902543;28;21178;-61
2022/10/13 14:19:09;;;;;;;1.02;0.20;;;23.50;63.40;;;;;;3947991;28;23860;-54
2022/10/13 14:22:12;;;;;;;0.80;0.28;;;23.20;63.10;;;;;;5006508;28;22220;-55
2022/10/13 14:25:23;;;;;;;0.38;0.20;;;23.10;63.70;;;;;;3085054;28;23463;-59
2022/10/13 14:28:34;;;;;;;0.30;0.20;;;23.70;64.10;;;;;;3187012;28;22490;-60
2022/10/13 14:31:43;;;;;;;0.17;0.17;;;23.20;63.60;;;;;;5092490;28;20466;-62
2022/10/13 14:34:45;;;;;;;0.40;0.20;;;23.90;63.70;;;;;;5936599;28;20044;-59
2022/10/13 14:37:47;;;;;;;0.38;0.22;;;23.70;63.70;;;;;;5952141;28;20213;-59
2022/10/13 14:40:49;;;;;;;0.20;0.10;;;23.60;63.70;;;;;;5953923;28;20054;-57
2022/10/13 14:43:52;;;;;;;0.40;0.20;;;23.10;63.50;;;;;;5974280;28;20046;-60
2022/10/13 14:46:54;;;;;;;0.57;0.10;;;23.40;63.70;;;;;;5951436;28;20270;-59
2022/10/13 14:49:56;;;;;;;0.17;0.17;;;23.70;64.60;;;;;;5956486;28;22294;-59
2022/10/13 14:52:57;;;;;;;0.38;0.20;;;23.90;64.10;;;;;;5930247;28;20053;-60
2022/10/13 14:55:59;;;;;;;0.28;0.20;;;23.40;64.00;;;;;;5947767;28;20139;-58
2022/10/13 14:59:04;;;;;;;0.10;0.10;;;23.60;64.00;;;;;;5966480;28;20070;-59
2022/10/13 15:02:13;;;;;;;0.30;0.20;;;23.80;64.10;;;;;;5937226;28;21546;-59
2022/10/13 15:05:25;;;;;;;0.35;0.20;;;23.60;64.00;;;;;;5994547;28;20044;-59
2022/10/13 15:08:27;;;;;;;1.45;0.25;;;23.80;64.40;;;;;;5981195;28;20053;-56
2022/10/13 15:11:28;;;;;;;0.20;0.10;;;23.60;64.50;;;;;;6006930;28;20059;-57
2022/10/13 15:14:30;;;;;;;0.57;0.20;;;23.40;64.40;;;;;;6014442;28;20129;-60
2022/10/13 15:17:35;;;;;;;0.10;0.10;;;23.70;64.60;;;;;;6014398;28;20075;-59
2022/10/13 15:20:37;;;;;;;0.17;0.17;;;23.50;64.70;;;;;;6010999;28;20570;-59
2022/10/13 15:23:41;;;;;;;0.20;0.20;;;23.70;64.90;;;;;;6000302;28;20409;-57
2022/10/13 15:26:43;;;;;;;0.88;0.30;;;23.40;64.80;;;;;;5989563;28;20441;-59
2022/10/13 15:29:45;;;;;;;0.30;0.20;;;23.80;65.00;;;;;;6004182;28;21189;-59
2022/10/13 15:32:49;;;;;;;0.30;0.10;;;23.40;64.90;;;;;;6024882;28;21136;-59
2022/10/13 15:35:52;;;;;;;0.52;0.20;;;23.60;65.00;;;;;;6022792;28;21858;-60
2022/10/13 15:38:53;;;;;;;0.20;0.15;;;24.00;65.40;;;;;;6025619;28;20056;-60
2022/10/13 15:41:55;;;;;;;0.20;0.20;;;23.60;65.10;;;;;;6019488;28;20305;-58
2022/10/13 15:44:57;;;;;;;0.25;0.20;;;23.70;65.40;;;;;;6032636;28;21017;-59
2022/10/13 15:48:12;;;;;;;0.17;0.17;;;23.70;65.60;;;;;;6015043;28;20335;-60
2022/10/13 15:51:17;;;;;;;0.40;0.30;;;23.80;65.60;;;;;;6049063;28;20324;-57
2022/10/13 15:54:34;;;;;;;0.20;0.20;;;24.00;65.70;;;;;;4992471;28;23119;-57
2022/10/13 15:57:52;;;;;;;0.10;0.10;;;23.20;65.20;;;;;;4940743;28;21336;-57
2022/10/13 16:00:54;;;;;;;0.20;0.20;;;23.70;65.80;;;;;;6056075;28;20049;-55
2022/10/13 16:03:56;;;;;;;0.22;0.20;;;23.70;65.90;;;;;;6033565;28;22228;-57
2022/10/13 16:06:57;;;;;;;0.10;0.10;;;23.70;65.90;;;;;;6079620;28;20052;-55
2022/10/13 16:09:59;;;;;;;0.10;0.10;;;23.30;66.00;;;;;;6103459;28;20048;-57
2022/10/13 16:13:01;;;;;;;0.17;0.17;;;23.50;66.10;;;;;;6116950;28;21279;-59
2022/10/13 16:16:02;;;;;;;0.30;0.20;;;23.60;66.20;;;;;;6111620;28;20482;-58
2022/10/13 16:19:04;;;;;;;0.25;0.25;;;23.60;66.40;;;;;;6076825;28;20293;-58
2022/10/13 16:22:06;;;;;;;0.30;0.20;;;23.70;66.40;;;;;;6042197;28;20220;-59
2022/10/13 16:25:09;;;;;;;0.20;0.20;;;23.60;66.40;;;;;;6065393;28;21038;-60
2022/10/13 16:28:11;;;;;;;0.50;0.10;;;23.70;66.60;;;;;;6098561;28;20222;-57
2022/10/13 16:31:14;;;;;;;0.32;0.10;;;24.00;66.70;;;;;;6065184;28;20612;-56
2022/10/13 16:34:21;;;;;;;0.30;0.30;;;24.20;66.90;;;;;;6081356;28;24433;-55
2022/10/13 16:37:23;;;;;;;0.45;0.30;;;23.60;66.70;;;;;;6091823;28;21565;-59
2022/10/13 16:40:25;;;;;;;0.20;0.20;;;23.70;66.80;;;;;;6131358;28;20049;-58
2022/10/13 16:43:29;;;;;;;1.70;0.43;;;23.80;66.90;;;;;;6134939;28;20520;-59
2022/10/13 16:46:31;;;;;;;0.25;0.20;;;23.60;66.80;;;;;;6118005;28;20151;-59
2022/10/13 16:49:34;;;;;;;0.30;0.20;;;23.30;66.80;;;;;;6120526;28;20076;-60
2022/10/13 16:52:35;;;;;;;0.50;0.25;;;23.30;67.00;;;;;;6122924;28;21089;-60
2022/10/13 16:55:38;;;;;;;0.75;0.20;;;23.60;67.30;;;;;;6113914;28;20047;-60
2022/10/13 16:58:43;;;;;;;0.20;0.20;;;23.30;67.20;;;;;;6130707;28;20106;-60
2022/10/13 17:01:46;;;;;;;0.28;0.28;;;23.70;67.40;;;;;;6150927;28;20053;-59
2022/10/13 17:04:48;;;;;;;0.30;0.20;;;23.80;67.60;;;;;;6165307;28;21394;-59
2022/10/13 17:07:51;;;;;;;0.52;0.15;;;23.70;67.40;;;;;;6163639;28;20127;-59
2022/10/13 17:10:53;;;;;;;0.40;0.30;;;23.70;67.50;;;;;;6165570;28;20051;-58
2022/10/13 17:14:00;;;;;;;0.10;0.10;;;24.20;67.80;;;;;;6168744;28;20045;-61
2022/10/13 17:17:04;;;;;;;0.30;0.22;;;23.50;67.30;;;;;;6145583;28;20036;-58
2022/10/13 17:20:12;;;;;;;0.10;0.10;;;23.50;67.40;;;;;;6173594;28;20788;-59
2022/10/13 17:23:15;;;;;;;0.10;0.10;;;23.60;67.50;;;;;;6168970;28;20807;-54